Wiota, Iowa
Current Conditions -  °F | °C
As of 7:55 AM on Wednesday 26 Nov 2014 (Local Time) from KAIO Reporting Station
Light Snow Light Snow  
Wind Chill: 24°   Ceiling: 900
Heat Index: 34°   Visibility: 7mi
Dew Point: 34°   Wind: 15mph
Humidity: 100%   Direction: 330°NNW
Pressure: 29.85"   Gusts: NA
Location:  41.4°N, 94.89°W
Report Text: KAIO 261355Z AUTO 33013KT 7SM -SN BKN009 OVC041 01/01 A2985 RMK AO2
Loading
Personal Weather Stations






























Interactive Weather Map New forecast layout! Learn more

10-Day Weather Forecast

Advertisements
Track Severe Weather on mobile